Sharon, Missouri
Current Conditions -  °F | °C
As of 7:55 PM on Sunday 21 Dec 2014 (Local Time) from KVER Reporting Station
Overcast Overcast  
Wind Chill: 36°   Ceiling: 5000
Heat Index: 42°   Visibility: 10mi
Dew Point: 38°   Wind: 10mph
Humidity: 86%   Direction: 140°SE
Pressure: 29.89"   Gusts: NA
Location:  39.2023°N, 93.0277°W
Report Text: KVER 220155Z AUTO 14009KT 10SM OVC050 06/04 A2989 RMK AO2 T00570035
Loading
Personal Weather Stations






























Interactive Weather Map New forecast layout! Learn more

10-Day Weather Forecast

Advertisements
Track Severe Weather on mobile